createdAt,value
2023-01-03T00:02:06.857Z,14.40
2023-01-03T00:04:33.553Z,9.70
2023-01-03T00:07:00.152Z,11.40
2023-01-03T00:09:26.721Z,12.00
2023-01-03T00:12:12.976Z,19.27
2023-01-03T00:14:41.771Z,13.40
2023-01-03T00:17:09.476Z,10.27
2023-01-03T00:19:40.020Z,13.93
2023-01-03T00:22:07.343Z,9.30
2023-01-03T00:24:34.088Z,13.47
2023-01-03T00:27:00.796Z,9.83
2023-01-03T00:29:27.615Z,13.03
2023-01-03T00:31:54.384Z,17.20
2023-01-03T00:34:21.045Z,10.20
2023-01-03T00:36:47.813Z,18.40
2023-01-03T00:39:14.653Z,20.77
2023-01-03T00:41:41.645Z,11.90
2023-01-03T00:44:08.606Z,16.40
2023-01-03T00:46:35.848Z,17.60
2023-01-03T00:49:04.334Z,14.83
2023-01-03T00:51:33.531Z,17.83
2023-01-03T00:54:01.499Z,17.97
2023-01-03T00:56:32.065Z,14.07
2023-01-03T00:58:58.716Z,12.63
2023-01-03T01:01:42.466Z,18.77
2023-01-03T01:04:14.361Z,26.77
2023-01-03T01:06:43.412Z,16.53
2023-01-03T01:09:16.650Z,18.13
2023-01-03T01:11:43.261Z,17.80
2023-01-03T01:14:20.203Z,19.97
2023-01-03T01:16:55.884Z,19.50
2023-01-03T01:19:32.074Z,14.63
2023-01-03T01:21:58.708Z,21.30
2023-01-03T01:24:25.789Z,16.67
2023-01-03T01:26:52.561Z,13.93
2023-01-03T01:29:19.937Z,15.10
2023-01-03T01:31:48.021Z,19.70
2023-01-03T01:34:15.763Z,18.27
2023-01-03T01:36:43.618Z,16.40
2023-01-03T01:39:12.091Z,17.73
2023-01-03T01:41:58.311Z,20.83
2023-01-03T01:44:42.134Z,15.37
2023-01-03T01:47:30.052Z,25.33
2023-01-03T01:50:12.221Z,18.17
2023-01-03T01:52:42.179Z,18.60
2023-01-03T01:55:13.178Z,23.00
2023-01-03T01:57:40.665Z,15.33
2023-01-03T02:00:09.152Z,19.50
2023-01-03T02:02:42.846Z,21.37
2023-01-03T02:05:10.566Z,24.73
2023-01-03T02:07:38.274Z,21.37
2023-01-03T02:10:05.956Z,27.10
2023-01-03T02:12:56.680Z,27.07
2023-01-03T02:15:41.819Z,25.70
2023-01-03T02:18:33.364Z,25.37
2023-01-03T02:21:21.631Z,22.43
2023-01-03T02:23:50.870Z,29.10
2023-01-03T02:26:49.478Z,21.00
2023-01-03T02:29:34.391Z,22.60
2023-01-03T02:32:15.651Z,24.93
2023-01-03T02:35:01.021Z,31.63
2023-01-03T02:37:48.422Z,32.80
2023-01-03T02:40:26.115Z,29.90
2023-01-03T02:43:25.842Z,22.10
2023-01-03T02:46:09.619Z,21.87
2023-01-03T02:48:54.733Z,28.70
2023-01-03T02:51:31.802Z,26.03
2023-01-03T02:53:58.640Z,23.93
2023-01-03T02:56:44.778Z,23.30
2023-01-03T02:59:15.678Z,26.30
2023-01-03T03:01:45.198Z,24.77
2023-01-03T03:04:12.879Z,28.83
2023-01-03T03:06:43.593Z,22.13
2023-01-03T03:09:10.285Z,25.00
2023-01-03T03:11:56.534Z,26.63
2023-01-03T03:14:38.394Z,27.37
2023-01-03T03:17:09.401Z,23.10
2023-01-03T03:19:56.882Z,25.07
2023-01-03T03:22:59.307Z,23.73
2023-01-03T03:25:29.563Z,25.37
2023-01-03T03:28:18.841Z,28.07
2023-01-03T03:30:48.217Z,25.57
2023-01-03T03:33:15.804Z,30.37
2023-01-03T03:36:19.382Z,29.40
2023-01-03T03:38:46.458Z,26.80
2023-01-03T03:41:36.871Z,24.87
2023-01-03T03:44:29.829Z,26.93
2023-01-03T03:47:07.601Z,34.50
2023-01-03T03:49:38.617Z,32.40
2023-01-03T03:52:11.938Z,32.33
2023-01-03T03:54:40.201Z,32.90
2023-01-03T03:57:22.095Z,28.80
2023-01-03T03:59:55.412Z,30.70
2023-01-03T04:02:23.192Z,30.47
2023-01-03T04:04:54.178Z,28.63
2023-01-03T04:07:20.800Z,31.10
2023-01-03T04:09:47.469Z,31.53
2023-01-03T04:12:15.187Z,33.80
2023-01-03T04:14:41.821Z,30.70
2023-01-03T04:17:08.781Z,31.57
2023-01-03T04:19:35.548Z,35.17
2023-01-03T04:22:02.160Z,36.17
2023-01-03T04:24:28.758Z,28.90
2023-01-03T04:26:55.411Z,30.33
2023-01-03T04:29:22.076Z,29.67
2023-01-03T04:31:48.746Z,32.27
2023-01-03T04:34:15.475Z,34.80
2023-01-03T04:36:42.130Z,33.27
2023-01-03T04:39:08.729Z,34.23
2023-01-03T04:41:35.486Z,34.53
2023-01-03T04:44:02.228Z,34.10
2023-01-03T04:46:33.401Z,32.30
2023-01-03T04:49:00.443Z,30.73
2023-01-03T04:51:28.187Z,28.53
2023-01-03T04:53:55.021Z,28.40
2023-01-03T04:56:29.706Z,27.70
2023-01-03T04:58:56.973Z,30.70
2023-01-03T05:01:25.129Z,30.03
2023-01-03T05:03:52.020Z,30.50
2023-01-03T05:06:18.877Z,33.23
2023-01-03T05:08:47.250Z,34.20
2023-01-03T05:11:14.117Z,39.17
2023-01-03T05:13:40.716Z,35.80
2023-01-03T05:16:09.909Z,33.80
2023-01-03T05:18:39.775Z,30.10
2023-01-03T05:21:38.751Z,29.73
2023-01-03T05:24:24.610Z,30.33
2023-01-03T05:26:51.624Z,32.70
2023-01-03T05:29:20.750Z,35.17
2023-01-03T05:31:47.930Z,34.17
2023-01-03T05:34:14.666Z,33.33
2023-01-03T05:36:41.414Z,31.00
2023-01-03T05:39:08.134Z,36.70
2023-01-03T05:41:53.564Z,31.00
2023-01-03T05:44:20.248Z,30.50
2023-01-03T05:46:46.948Z,31.53
2023-01-03T05:49:13.548Z,31.17
2023-01-03T05:51:40.305Z,33.60
2023-01-03T05:54:07.018Z,37.10
2023-01-03T05:56:33.900Z,32.80
2023-01-03T05:59:00.738Z,33.80
2023-01-03T06:01:28.448Z,32.60
2023-01-03T06:03:55.747Z,36.83
2023-01-03T06:06:22.455Z,34.17
2023-01-03T06:08:49.666Z,33.03
2023-01-03T06:11:17.261Z,34.47
2023-01-03T06:13:44.522Z,34.47
2023-01-03T06:16:37.900Z,35.13
2023-01-03T06:19:05.757Z,31.10
2023-01-03T06:21:32.905Z,37.73
2023-01-03T06:23:59.618Z,32.90
2023-01-03T06:26:26.756Z,35.47
2023-01-03T06:28:53.422Z,42.20
2023-01-03T06:31:20.575Z,41.17
2023-01-03T06:33:48.050Z,34.13
2023-01-03T06:36:17.178Z,35.20
2023-01-03T06:38:44.115Z,44.63
2023-01-03T06:41:11.019Z,37.10
2023-01-03T06:43:37.668Z,45.27
2023-01-03T06:46:23.277Z,36.73
2023-01-03T06:49:08.526Z,48.83
2023-01-03T06:51:53.753Z,45.83
2023-01-03T06:54:24.839Z,55.93
2023-01-03T06:56:52.433Z,44.40
2023-01-03T06:59:21.025Z,45.93
2023-01-03T07:01:49.108Z,45.17
2023-01-03T07:04:16.026Z,43.63
2023-01-03T07:06:43.060Z,45.37
2023-01-03T07:09:10.494Z,42.30
2023-01-03T07:11:37.989Z,48.23
2023-01-03T07:14:05.731Z,48.73
2023-01-03T07:16:35.509Z,49.90
2023-01-03T07:19:03.743Z,48.27
2023-01-03T07:21:31.681Z,44.40
2023-01-03T07:24:01.757Z,46.73
2023-01-03T07:26:33.632Z,44.67
2023-01-03T07:29:02.140Z,50.43
2023-01-03T07:31:29.022Z,53.93
2023-01-03T07:33:55.836Z,45.93
2023-01-03T07:36:22.388Z,43.70
2023-01-03T07:38:49.327Z,53.73
2023-01-03T07:41:16.717Z,49.50
2023-01-03T07:43:46.701Z,49.10
2023-01-03T07:46:18.003Z,44.97
2023-01-03T07:48:46.311Z,43.93
2023-01-03T07:51:14.557Z,48.97
2023-01-03T07:53:41.548Z,51.30
2023-01-03T07:56:13.790Z,50.13
2023-01-03T07:58:42.030Z,54.70
2023-01-03T08:01:19.969Z,48.43
2023-01-03T08:03:46.898Z,48.73
2023-01-03T08:06:16.723Z,47.63
2023-01-03T08:08:44.840Z,43.37
2023-01-03T08:11:32.133Z,50.20
2023-01-03T08:13:59.020Z,45.90
2023-01-03T08:16:25.799Z,55.90
2023-01-03T08:18:52.568Z,50.80
2023-01-03T08:21:19.199Z,50.60
2023-01-03T08:23:45.908Z,48.57
2023-01-03T08:26:14.780Z,58.67
2023-01-03T08:28:42.807Z,52.30
2023-01-03T08:31:15.611Z,60.33
2023-01-03T08:33:58.062Z,49.73
2023-01-03T08:36:26.730Z,52.13
2023-01-03T08:38:57.067Z,51.00
2023-01-03T08:41:26.477Z,57.30
2023-01-03T08:43:54.440Z,54.60
2023-01-03T08:46:21.137Z,53.50
2023-01-03T08:48:47.985Z,59.53
2023-01-03T08:51:14.700Z,57.47
2023-01-03T08:53:41.258Z,56.07
2023-01-03T08:56:08.246Z,59.80
2023-01-03T08:58:34.942Z,52.50
2023-01-03T09:01:02.942Z,53.83
2023-01-03T09:03:29.611Z,56.13
2023-01-03T09:06:00.102Z,58.80
2023-01-03T09:08:26.774Z,61.93
2023-01-03T09:10:53.432Z,55.27
2023-01-03T09:13:20.110Z,56.30
2023-01-03T09:15:46.756Z,53.17
2023-01-03T09:18:13.423Z,50.77
2023-01-03T09:20:40.037Z,55.73
2023-01-03T09:23:06.701Z,46.80
2023-01-03T09:25:37.294Z,47.80
2023-01-03T09:28:04.584Z,50.67
2023-01-03T09:30:31.216Z,51.40
2023-01-03T09:32:57.877Z,50.47
2023-01-03T09:35:24.512Z,49.80
2023-01-03T09:37:51.306Z,44.70
2023-01-03T09:40:18.034Z,44.67
2023-01-03T09:43:03.406Z,45.73
2023-01-03T09:45:33.108Z,48.13
2023-01-03T09:48:04.020Z,42.50
2023-01-03T09:50:57.400Z,43.60
2023-01-03T09:53:49.086Z,38.90
2023-01-03T09:56:34.422Z,44.80
2023-01-03T09:59:28.708Z,38.40
2023-01-03T10:02:41.094Z,53.50
2023-01-03T10:05:32.751Z,40.50
2023-01-03T10:08:30.491Z,41.20
2023-01-03T10:11:00.097Z,46.17
2023-01-03T10:13:42.430Z,36.13
2023-01-03T10:16:41.633Z,35.33
2023-01-03T10:19:39.136Z,38.10
2023-01-03T10:22:11.075Z,38.93
2023-01-03T10:25:09.792Z,36.50
2023-01-03T10:27:48.039Z,35.17
2023-01-03T10:30:17.913Z,38.23
2023-01-03T10:32:52.386Z,41.43
2023-01-03T10:35:35.561Z,42.80
2023-01-03T10:38:02.548Z,34.87
2023-01-03T10:40:38.281Z,35.47
2023-01-03T10:43:28.792Z,36.47
2023-01-03T10:46:00.202Z,29.27
2023-01-03T10:49:16.951Z,33.77
2023-01-03T10:51:43.021Z,26.87
2023-01-03T10:54:19.225Z,25.83
2023-01-03T10:56:47.606Z,27.20
2023-01-03T10:59:24.444Z,28.07
2023-01-03T11:02:00.555Z,27.33
2023-01-03T11:04:28.843Z,26.30
2023-01-03T11:07:13.919Z,21.60
2023-01-03T11:09:51.487Z,22.83
2023-01-03T11:12:29.214Z,23.97
2023-01-03T11:14:57.276Z,25.43
2023-01-03T11:17:25.905Z,23.40
2023-01-03T11:19:53.088Z,25.10
2023-01-03T11:22:42.449Z,26.33
2023-01-03T11:25:57.395Z,22.77
2023-01-03T11:28:32.831Z,18.53
2023-01-03T11:31:06.918Z,25.87
2023-01-03T11:33:42.760Z,16.37
2023-01-03T11:36:27.090Z,20.57
2023-01-03T11:39:15.631Z,18.30
2023-01-03T11:42:14.579Z,18.33
2023-01-03T11:45:02.936Z,16.00
2023-01-03T11:47:44.961Z,24.93
2023-01-03T11:50:37.736Z,15.17
2023-01-03T11:53:12.407Z,18.27
2023-01-03T11:56:00.958Z,14.60
2023-01-03T11:59:06.927Z,17.43
2023-01-03T12:01:49.216Z,14.87
2023-01-03T12:04:31.326Z,15.33
2023-01-03T12:07:36.791Z,13.87
2023-01-03T12:10:06.591Z,12.53
2023-01-03T12:12:36.009Z,12.40
2023-01-03T12:15:15.673Z,19.17
2023-01-03T12:17:48.629Z,11.23
2023-01-03T12:20:21.625Z,9.93
2023-01-03T12:22:53.543Z,13.03
2023-01-03T12:25:36.871Z,16.67
2023-01-03T12:28:10.157Z,9.50
2023-01-03T12:30:43.530Z,13.20
2023-01-03T12:33:31.032Z,7.90
2023-01-03T12:36:03.009Z,11.00
2023-01-03T12:38:44.765Z,12.70
2023-01-03T12:41:22.183Z,7.10
2023-01-03T12:43:55.624Z,11.10
2023-01-03T12:46:26.118Z,10.83
2023-01-03T12:48:58.783Z,8.77
2023-01-03T12:51:25.621Z,13.73
2023-01-03T12:54:34.920Z,8.10
2023-01-03T12:57:04.530Z,11.37
2023-01-03T12:59:56.046Z,7.63
2023-01-03T13:02:32.235Z,10.60
2023-01-03T13:05:13.123Z,13.73
2023-01-03T13:07:41.744Z,10.30
2023-01-03T13:10:14.404Z,9.20
2023-01-03T13:12:44.789Z,10.13
2023-01-03T13:15:36.216Z,13.10
2023-01-03T13:18:22.934Z,7.27
2023-01-03T13:20:50.783Z,8.20
2023-01-03T13:23:29.657Z,11.43
2023-01-03T13:26:05.731Z,9.80
2023-01-03T13:28:33.267Z,8.43
2023-01-03T13:31:18.307Z,7.10
2023-01-03T13:33:54.113Z,6.47
2023-01-03T13:36:21.411Z,32.57
2023-01-03T13:38:48.168Z,20.73
2023-01-03T13:41:33.267Z,11.90
2023-01-03T13:44:21.364Z,17.87
2023-01-03T13:46:48.243Z,14.93
2023-01-03T13:49:19.246Z,11.90
2023-01-03T13:51:52.501Z,8.83
2023-01-03T13:54:19.120Z,8.17
2023-01-03T13:56:45.791Z,8.30
2023-01-03T13:59:15.602Z,7.80
2023-01-03T14:02:30.288Z,8.07
2023-01-03T14:05:20.162Z,6.90
2023-01-03T14:08:08.655Z,9.07
2023-01-03T14:11:24.776Z,10.73
2023-01-03T14:13:55.428Z,11.50
2023-01-03T14:16:44.134Z,8.20
2023-01-03T14:19:32.177Z,8.10
2023-01-03T14:22:21.068Z,8.83
2023-01-03T14:24:52.398Z,11.70
2023-01-03T14:27:21.751Z,11.57
2023-01-03T14:29:52.065Z,10.43
2023-01-03T14:32:21.751Z,7.13
2023-01-03T14:34:49.016Z,9.27
2023-01-03T14:37:27.098Z,9.37
2023-01-03T14:39:55.745Z,10.70
2023-01-03T14:42:22.987Z,9.20
2023-01-03T14:44:55.119Z,10.23
2023-01-03T14:47:22.048Z,12.33
2023-01-03T14:49:52.968Z,8.40
2023-01-03T14:52:32.917Z,7.60
2023-01-03T14:55:04.906Z,8.80
2023-01-03T14:57:32.427Z,10.60
2023-01-03T15:00:00.847Z,10.90
2023-01-03T15:02:31.235Z,6.60
2023-01-03T15:04:58.634Z,9.10
2023-01-03T15:07:32.916Z,12.30
2023-01-03T15:10:18.357Z,13.63
2023-01-03T15:13:00.708Z,13.37
2023-01-03T15:15:39.972Z,7.83
2023-01-03T15:18:09.465Z,18.57
2023-01-03T15:20:42.797Z,9.53
2023-01-03T15:23:34.818Z,10.03
2023-01-03T15:26:01.484Z,10.63
2023-01-03T15:28:36.935Z,9.87
2023-01-03T15:31:27.416Z,9.47
2023-01-03T15:34:03.310Z,14.37
2023-01-03T15:36:31.943Z,8.97
2023-01-03T15:38:58.963Z,12.03
2023-01-03T15:42:12.245Z,8.73
2023-01-03T15:44:38.609Z,9.60
2023-01-03T15:47:07.875Z,20.60
2023-01-03T15:49:40.556Z,13.67
2023-01-03T15:52:12.480Z,10.27
2023-01-03T15:54:40.238Z,5.93
2023-01-03T15:57:13.061Z,15.13
2023-01-03T15:59:43.481Z,13.10
2023-01-03T16:02:16.699Z,10.93
2023-01-03T16:04:45.404Z,11.50
2023-01-03T16:07:12.108Z,11.70
2023-01-03T16:09:38.927Z,12.17
2023-01-03T16:12:09.585Z,11.60
2023-01-03T16:14:38.908Z,8.67
2023-01-03T16:17:07.162Z,9.97
2023-01-03T16:19:34.368Z,7.57
2023-01-03T16:22:33.999Z,9.63
2023-01-03T16:24:50.453Z,7.43
2023-01-03T16:27:22.925Z,6.60
2023-01-03T16:29:49.534Z,7.17
2023-01-03T16:32:29.848Z,7.50
2023-01-03T16:35:07.869Z,8.07
2023-01-03T16:37:35.275Z,15.00
2023-01-03T16:40:01.949Z,8.77
2023-01-03T16:42:28.708Z,6.80
2023-01-03T16:44:55.548Z,7.50
2023-01-03T16:47:32.147Z,7.97
2023-01-03T16:50:01.366Z,7.40
2023-01-03T16:52:33.147Z,10.30
2023-01-03T16:55:12.647Z,6.30
2023-01-03T16:57:39.266Z,9.10
2023-01-03T17:00:26.154Z,8.00
2023-01-03T17:02:55.842Z,7.73
2023-01-03T17:05:22.947Z,8.37
2023-01-03T17:07:51.444Z,12.27
2023-01-03T17:10:33.855Z,7.87
2023-01-03T17:13:06.823Z,8.47
2023-01-03T17:15:35.255Z,6.07
2023-01-03T17:18:01.845Z,8.47
2023-01-03T17:20:28.482Z,7.87
2023-01-03T17:22:58.876Z,7.10
2023-01-03T17:25:25.620Z,6.97
2023-01-03T17:27:54.753Z,7.10
2023-01-03T17:30:24.271Z,13.83
2023-01-03T17:32:51.053Z,7.13
2023-01-03T17:35:18.057Z,6.80
2023-01-03T17:38:23.482Z,7.00
2023-01-03T17:40:34.295Z,9.50
2023-01-03T17:43:02.369Z,8.63
2023-01-03T17:45:47.973Z,6.80
2023-01-03T17:48:33.308Z,11.33
2023-01-03T17:51:01.688Z,8.30
2023-01-03T17:53:28.802Z,8.97
2023-01-03T17:55:55.414Z,7.13
2023-01-03T17:58:30.861Z,7.90
2023-01-03T18:00:57.548Z,8.53
2023-01-03T18:03:24.715Z,11.00
2023-01-03T18:05:52.195Z,8.27
2023-01-03T18:08:20.906Z,8.10
2023-01-03T18:10:47.903Z,8.30
2023-01-03T18:13:26.779Z,8.63
2023-01-03T18:15:54.352Z,9.00
2023-01-03T18:18:22.626Z,15.87
2023-01-03T18:20:50.298Z,15.53
2023-01-03T18:23:29.315Z,19.73
2023-01-03T18:25:58.838Z,11.17
2023-01-03T18:28:26.853Z,11.10
2023-01-03T18:30:54.873Z,14.33
2023-01-03T18:33:21.757Z,13.50
2023-01-03T18:35:48.898Z,8.70
2023-01-03T18:38:29.949Z,10.33
2023-01-03T18:41:02.434Z,18.63
2023-01-03T18:43:32.271Z,8.50
2023-01-03T18:45:58.987Z,10.37
2023-01-03T18:48:25.703Z,18.27
2023-01-03T18:50:58.359Z,15.40
2023-01-03T18:53:28.306Z,14.93
2023-01-03T18:55:55.025Z,12.10
2023-01-03T18:58:39.342Z,12.23
2023-01-03T19:01:06.994Z,9.30
2023-01-03T19:03:37.727Z,9.83
2023-01-03T19:06:16.384Z,12.30
2023-01-03T19:08:43.269Z,9.73
2023-01-03T19:11:18.734Z,5.07
2023-01-03T19:13:51.732Z,11.27
2023-01-03T19:16:27.780Z,12.23
2023-01-03T19:18:55.266Z,13.73
2023-01-03T19:21:26.636Z,9.10
2023-01-03T19:24:00.168Z,12.17
2023-01-03T19:26:32.643Z,8.90
2023-01-03T19:29:01.284Z,10.53
2023-01-03T19:31:39.720Z,9.90
2023-01-03T19:34:16.070Z,8.77
2023-01-03T19:36:42.961Z,10.47
2023-01-03T19:39:11.095Z,10.97
2023-01-03T19:42:03.636Z,13.40
2023-01-03T19:44:30.933Z,19.30
2023-01-03T19:46:57.701Z,14.40
2023-01-03T19:49:24.807Z,11.13
2023-01-03T19:51:51.885Z,6.87
2023-01-03T19:54:18.725Z,12.63
2023-01-03T19:56:45.536Z,7.97
2023-01-03T19:59:25.223Z,9.70
2023-01-03T20:02:23.510Z,8.10
2023-01-03T20:04:38.968Z,5.77
2023-01-03T20:07:13.900Z,6.20
2023-01-03T20:09:40.654Z,5.20
2023-01-03T20:12:17.466Z,5.70
2023-01-03T20:14:50.767Z,7.17
2023-01-03T20:17:26.290Z,5.93
2023-01-03T20:20:00.714Z,6.53
2023-01-03T20:25:44.404Z,3.57
2023-01-03T20:28:44.648Z,5.30
2023-01-03T20:31:14.013Z,7.03
2023-01-03T20:34:08.721Z,6.63
2023-01-03T20:36:58.182Z,4.03
2023-01-03T20:39:41.523Z,5.60
2023-01-03T20:42:36.874Z,6.30
2023-01-03T20:45:26.428Z,3.07
2023-01-03T20:48:03.546Z,7.57
2023-01-03T20:50:33.085Z,5.80
2023-01-03T20:53:22.802Z,7.80
2023-01-03T20:56:12.214Z,3.60
2023-01-03T20:58:50.008Z,3.70
2023-01-03T21:01:33.545Z,5.10
2023-01-03T21:04:13.815Z,6.57
2023-01-03T21:10:21.547Z,6.13
2023-01-03T21:13:00.899Z,3.30
2023-01-03T21:15:29.389Z,4.83
2023-01-03T21:18:29.132Z,5.23
2023-01-03T21:21:16.275Z,4.93
2023-01-03T21:24:05.508Z,5.93
2023-01-03T21:26:59.394Z,4.20
2023-01-03T21:32:30.478Z,3.10
2023-01-03T21:35:06.996Z,3.60
2023-01-03T21:37:39.456Z,4.07
2023-01-03T21:40:40.437Z,3.93
2023-01-03T21:43:17.711Z,3.83
2023-01-03T21:48:54.880Z,2.57
2023-01-03T21:51:38.498Z,6.10
2023-01-03T21:54:26.586Z,4.87
2023-01-03T21:57:29.065Z,5.23
2023-01-03T22:00:23.459Z,3.83
2023-01-03T22:03:19.511Z,6.90
2023-01-03T22:06:23.201Z,3.53
2023-01-03T22:09:12.230Z,5.30
2023-01-03T22:11:59.656Z,4.83
2023-01-03T22:14:55.607Z,4.53
2023-01-03T22:23:26.664Z,6.23
2023-01-03T22:31:47.115Z,5.87
2023-01-03T22:34:48.351Z,4.83
2023-01-03T22:40:51.977Z,4.20
2023-01-03T22:43:47.303Z,8.20
2023-01-03T22:46:28.277Z,6.87
2023-01-03T22:49:05.990Z,6.00
2023-01-03T22:51:54.363Z,4.00
2023-01-03T22:54:51.837Z,6.33
2023-01-03T22:57:31.039Z,5.43
2023-01-03T23:00:21.816Z,3.90
2023-01-03T23:02:51.252Z,3.67
2023-01-03T23:05:27.148Z,2.87
2023-01-03T23:08:12.396Z,4.70
2023-01-03T23:10:45.255Z,3.70
2023-01-03T23:16:33.045Z,4.87
2023-01-03T23:19:10.779Z,10.03
2023-01-03T23:21:50.204Z,4.60
2023-01-03T23:24:35.631Z,2.33
2023-01-03T23:27:13.883Z,6.70
2023-01-03T23:32:54.517Z,4.13
2023-01-03T23:35:51.035Z,3.37
2023-01-03T23:39:28.951Z,5.03
2023-01-03T23:42:24.209Z,2.87
2023-01-03T23:44:55.803Z,3.37
2023-01-03T23:47:40.027Z,5.10
2023-01-03T23:50:24.389Z,3.67
2023-01-03T23:52:58.890Z,2.90
2023-01-03T23:55:28.052Z,4.47
2023-01-03T23:57:56.247Z,4.13
